Time;durP1;ratioP1;P1;durP2;ratioP2;P2;SDS_P1;SDS_P2;PMS_P1;PMS_P2;Temp;Humidity;BMP_temperature;BMP_pressure;BME280_temperature;BME280_humidity;BME280_pressure;Samples;Min_cycle;Max_cycle;Signal;HPM_P1;HPM_P2
2022/05/23 00:02:58;;;;;;;1.90;1.52;;;;;;;;;;8311331;28;20064;-59
2022/05/23 00:06:59;;;;;;;4.20;1.50;;;;;;;;;;8311209;28;20036;-59
2022/05/23 00:10:59;;;;;;;4.00;1.73;;;;;;;;;;8313661;28;20021;-60
2022/05/23 00:14:59;;;;;;;2.30;1.60;;;;;;;;;;8309647;28;20032;-58
2022/05/23 00:19:00;;;;;;;3.40;1.70;;;;;;;;;;8312619;28;20118;-59
2022/05/23 00:23:00;;;;;;;5.13;1.67;;;;;;;;;;8312374;28;20695;-58
2022/05/23 00:27:00;;;;;;;2.45;1.55;;;;;;;;;;8311855;28;20018;-58
2022/05/23 00:31:00;;;;;;;2.07;1.70;;;;;;;;;;8309274;28;20044;-59
2022/05/23 00:35:18;;;;;;;1.70;1.60;;;;;;;;;;8312691;28;20021;-60
2022/05/23 00:39:19;;;;;;;2.00;1.80;;;;;;;;;;8307907;28;20446;-58
2022/05/23 00:43:20;;;;;;;3.10;1.80;;;;;;;;;;8309047;28;20025;-58
2022/05/23 00:47:22;;;;;;;2.17;1.42;;;;;;;;;;8311381;28;20041;-59
2022/05/23 00:51:22;;;;;;;1.92;1.42;;;;;;;;;;8308932;28;20025;-59
2022/05/23 00:55:35;;;;;;;2.30;1.60;;;;;;;;;;8311632;28;20151;-58
2022/05/23 00:59:35;;;;;;;1.50;1.40;;;;;;;;;;8308563;28;20382;-60
2022/05/23 01:03:35;;;;;;;2.80;1.60;;;;;;;;;;8310478;28;20065;-57
2022/05/23 01:07:36;;;;;;;2.65;1.70;;;;;;;;;;8309733;28;20020;-59
2022/05/23 01:11:37;;;;;;;1.50;1.40;;;;;;;;;;8305957;28;20056;-58
2022/05/23 01:15:38;;;;;;;1.52;1.42;;;;;;;;;;8306401;28;20203;-58
2022/05/23 01:19:38;;;;;;;3.67;1.48;;;;;;;;;;8309620;28;20069;-59
2022/05/23 01:23:44;;;;;;;3.95;1.52;;;;;;;;;;8308066;28;20045;-59
2022/05/23 01:27:47;;;;;;;1.75;1.55;;;;;;;;;;8309350;28;20175;-59
2022/05/23 01:31:48;;;;;;;3.63;1.83;;;;;;;;;;8307384;28;20041;-59
2022/05/23 01:35:48;;;;;;;3.20;1.90;;;;;;;;;;8308394;28;20095;-59
2022/05/23 01:39:48;;;;;;;3.15;1.60;;;;;;;;;;8308394;28;20056;-58
2022/05/23 01:43:48;;;;;;;1.95;1.63;;;;;;;;;;8308559;28;20033;-59
2022/05/23 01:47:48;;;;;;;2.72;1.65;;;;;;;;;;8307152;28;20037;-58
2022/05/23 01:51:49;;;;;;;1.60;1.50;;;;;;;;;;8306186;28;20348;-59
2022/05/23 01:55:49;;;;;;;3.10;1.60;;;;;;;;;;8307576;28;20017;-58
2022/05/23 02:04:08;;;;;;;1.90;1.50;;;;;;;;;;8309082;28;20478;-58
2022/05/23 02:08:08;;;;;;;2.85;1.60;;;;;;;;;;8305771;28;20021;-59
2022/05/23 02:12:09;;;;;;;3.60;1.90;;;;;;;;;;8307204;28;20132;-58
2022/05/23 02:16:09;;;;;;;3.42;1.85;;;;;;;;;;8305214;28;20048;-59
2022/05/23 02:20:10;;;;;;;2.97;1.95;;;;;;;;;;8309016;28;20036;-58
2022/05/23 02:24:10;;;;;;;1.92;1.50;;;;;;;;;;8307712;28;20025;-58
2022/05/23 02:28:11;;;;;;;3.63;1.70;;;;;;;;;;8305381;28;20029;-58
2022/05/23 02:32:11;;;;;;;2.13;1.40;;;;;;;;;;8305484;28;20046;-59
2022/05/23 02:36:11;;;;;;;3.42;1.65;;;;;;;;;;8306820;28;20300;-58
2022/05/23 02:40:12;;;;;;;3.83;1.60;;;;;;;;;;8306473;28;20719;-59
2022/05/23 02:44:12;;;;;;;2.92;1.58;;;;;;;;;;8306877;28;20053;-58
2022/05/23 02:48:12;;;;;;;4.10;1.70;;;;;;;;;;8303801;28;20029;-58
2022/05/23 02:52:13;;;;;;;3.22;1.98;;;;;;;;;;8307710;28;20025;-59
2022/05/23 02:56:13;;;;;;;2.22;1.70;;;;;;;;;;8304402;28;20036;-59
2022/05/23 03:00:14;;;;;;;2.53;1.85;;;;;;;;;;8304009;28;20123;-60
2022/05/23 03:04:14;;;;;;;1.90;1.60;;;;;;;;;;8306992;28;20028;-59
2022/05/23 03:08:16;;;;;;;2.50;2.03;;;;;;;;;;8305471;28;20018;-59
2022/05/23 03:12:17;;;;;;;3.60;2.10;;;;;;;;;;8303035;28;20656;-59
2022/05/23 03:16:17;;;;;;;2.17;1.60;;;;;;;;;;8303281;28;20967;-59
2022/05/23 03:20:17;;;;;;;3.42;1.80;;;;;;;;;;8303555;28;20275;-58
2022/05/23 03:28:37;;;;;;;2.30;1.75;;;;;;;;;;8311337;28;20036;-59
2022/05/23 03:32:39;;;;;;;4.70;2.20;;;;;;;;;;8310507;28;20036;-59
2022/05/23 03:36:39;;;;;;;5.70;2.10;;;;;;;;;;8311928;28;20025;-59
2022/05/23 03:40:40;;;;;;;4.32;1.83;;;;;;;;;;8310303;28;20015;-59
2022/05/23 03:44:40;;;;;;;3.80;1.80;;;;;;;;;;8312550;28;20021;-59
2022/05/23 03:48:41;;;;;;;2.78;1.60;;;;;;;;;;8308759;28;20021;-57
2022/05/23 03:52:41;;;;;;;2.63;1.65;;;;;;;;;;8311479;28;20029;-57
2022/05/23 03:56:41;;;;;;;3.72;1.88;;;;;;;;;;8312107;28;20048;-57
2022/05/23 04:00:43;;;;;;;2.72;1.60;;;;;;;;;;8304629;28;20025;-57
2022/05/23 04:04:44;;;;;;;3.50;2.05;;;;;;;;;;8311143;28;20151;-57
2022/05/23 04:08:44;;;;;;;5.43;1.80;;;;;;;;;;8311386;28;20052;-57
2022/05/23 04:12:44;;;;;;;7.28;2.35;;;;;;;;;;8312209;28;20033;-59
2022/05/23 04:16:46;;;;;;;2.90;1.80;;;;;;;;;;8324977;28;20033;-59
2022/05/23 04:20:46;;;;;;;2.78;1.85;;;;;;;;;;8309609;28;20033;-57
2022/05/23 04:24:46;;;;;;;6.40;2.30;;;;;;;;;;8308864;28;20060;-58
2022/05/23 04:28:47;;;;;;;4.95;2.50;;;;;;;;;;8309628;28;20037;-57
2022/05/23 04:37:06;;;;;;;3.17;2.25;;;;;;;;;;8307969;28;20107;-59
2022/05/23 04:41:06;;;;;;;3.70;2.33;;;;;;;;;;8308604;28;20022;-59
2022/05/23 04:45:07;;;;;;;3.00;2.37;;;;;;;;;;8306807;28;20017;-59
2022/05/23 04:53:25;;;;;;;3.60;2.30;;;;;;;;;;8309188;28;20475;-58
2022/05/23 04:57:26;;;;;;;3.65;2.20;;;;;;;;;;8305666;28;20053;-57
2022/05/23 05:01:26;;;;;;;4.78;2.70;;;;;;;;;;8305777;28;20068;-58
2022/05/23 05:05:27;;;;;;;6.87;3.33;;;;;;;;;;8309463;28;20024;-58
2022/05/23 05:09:27;;;;;;;8.57;2.50;;;;;;;;;;8306634;28;20255;-57
2022/05/23 05:13:33;;;;;;;5.07;2.85;;;;;;;;;;8305352;28;20367;-58
2022/05/23 05:17:33;;;;;;;12.45;3.30;;;;;;;;;;8307236;28;20034;-58
2022/05/23 05:21:33;;;;;;;9.10;2.97;;;;;;;;;;8270259;28;1039253;-57
2022/05/23 05:25:34;;;;;;;3.63;2.53;;;;;;;;;;8310637;28;20029;-59
2022/05/23 05:29:34;;;;;;;5.10;2.90;;;;;;;;;;8306144;28;20029;-58
2022/05/23 05:33:39;;;;;;;5.20;3.10;;;;;;;;;;8304324;28;20025;-57
2022/05/23 05:37:45;;;;;;;4.07;3.20;;;;;;;;;;8302562;28;20504;-58
2022/05/23 05:41:58;;;;;;;5.03;2.72;;;;;;;;;;8297487;28;20490;-58
2022/05/23 05:46:05;;;;;;;9.00;3.63;;;;;;;;;;8300057;28;20041;-58
2022/05/23 05:50:18;;;;;;;9.07;3.25;;;;;;;;;;8298088;28;20119;-58
2022/05/23 05:54:24;;;;;;;4.68;2.97;;;;;;;;;;8299326;28;20288;-58
2022/05/23 05:58:25;;;;;;;4.60;3.33;;;;;;;;;;8299207;28;20067;-58
2022/05/23 06:02:25;;;;;;;4.18;3.20;;;;;;;;;;8300580;28;20033;-58
2022/05/23 06:15:03;;;;;;;6.18;3.50;;;;;;;;;;8299320;28;20044;-59
2022/05/23 06:19:04;;;;;;;6.43;3.80;;;;;;;;;;8299377;28;20029;-59
2022/05/23 06:23:05;;;;;;;4.63;3.38;;;;;;;;;;8300782;28;20022;-59
2022/05/23 06:27:06;;;;;;;4.60;3.80;;;;;;;;;;8299698;28;20031;-59
2022/05/23 06:31:07;;;;;;;5.35;4.10;;;;;;;;;;8298735;28;20678;-59
2022/05/23 06:35:07;;;;;;;6.57;3.33;;;;;;;;;;8300049;28;20055;-59
2022/05/23 06:39:07;;;;;;;5.80;3.50;;;;;;;;;;8299314;28;20298;-59
2022/05/23 06:43:07;;;;;;;6.78;3.33;;;;;;;;;;8298290;28;20017;-58
2022/05/23 06:47:08;;;;;;;6.00;3.13;;;;;;;;;;8300241;28;20033;-58
2022/05/23 06:51:09;;;;;;;6.33;3.47;;;;;;;;;;8299184;28;20478;-59
2022/05/23 06:55:09;;;;;;;3.65;2.65;;;;;;;;;;8298383;28;20036;-58
2022/05/23 06:59:11;;;;;;;5.07;2.80;;;;;;;;;;8297152;28;20462;-59
2022/05/23 07:03:11;;;;;;;6.55;2.60;;;;;;;;;;8300606;28;20355;-59
2022/05/23 07:15:49;;;;;;;5.30;1.98;;;;;;;;;;8298400;28;20040;-59
2022/05/23 07:19:49;;;;;;;4.60;2.20;;;;;;;;;;8298557;28;20037;-59
2022/05/23 07:23:50;;;;;;;5.03;2.10;;;;;;;;;;8299117;28;20834;-59
2022/05/23 07:27:51;;;;;;;3.67;1.77;;;;;;;;;;8298157;28;20599;-59
2022/05/23 07:31:51;;;;;;;3.60;2.30;;;;;;;;;;8298308;28;20584;-59
2022/05/23 07:35:55;;;;;;;2.58;2.00;;;;;;;;;;8297840;28;20029;-59
2022/05/23 07:39:56;;;;;;;3.20;1.80;;;;;;;;;;8298400;28;20065;-59
2022/05/23 07:43:56;;;;;;;3.95;1.77;;;;;;;;;;8297959;28;20033;-59
2022/05/23 07:47:57;;;;;;;3.72;1.88;;;;;;;;;;8297666;28;20033;-59
2022/05/23 07:51:57;;;;;;;3.38;1.75;;;;;;;;;;8295698;28;20116;-59
2022/05/23 08:00:31;;;;;;;3.35;1.80;;;;;;;;;;8298238;28;20295;-58
2022/05/23 08:04:32;;;;;;;2.45;1.58;;;;;;;;;;8297526;28;20611;-59
2022/05/23 08:08:32;;;;;;;2.22;1.65;;;;;;;;;;8297179;28;20049;-59
2022/05/23 08:12:33;;;;;;;2.63;1.80;;;;;;;;;;8298603;28;20098;-59
2022/05/23 08:16:35;;;;;;;2.85;1.70;;;;;;;;;;8305878;28;20571;-59
2022/05/23 08:20:36;;;;;;;3.72;1.95;;;;;;;;;;8304189;28;20055;-59
2022/05/23 08:24:36;;;;;;;2.17;1.70;;;;;;;;;;8302075;28;20040;-59
2022/05/23 08:28:37;;;;;;;2.78;1.70;;;;;;;;;;8304240;28;20469;-59
2022/05/23 08:32:37;;;;;;;1.92;1.70;;;;;;;;;;8309742;28;20463;-60
2022/05/23 08:36:37;;;;;;;2.97;1.90;;;;;;;;;;8301970;28;20021;-59
2022/05/23 08:40:45;;;;;;;1.53;1.43;;;;;;;;;;8309212;28;20037;-60
2022/05/23 08:44:47;;;;;;;2.38;1.58;;;;;;;;;;8306877;28;20478;-59
2022/05/23 08:48:57;;;;;;;4.60;1.77;;;;;;;;;;8310766;28;20033;-59
2022/05/23 08:53:04;;;;;;;3.63;1.80;;;;;;;;;;8309014;28;20053;-59
2022/05/23 08:57:04;;;;;;;2.20;1.58;;;;;;;;;;8310689;28;20183;-59
2022/05/23 09:01:07;;;;;;;2.63;1.58;;;;;;;;;;8308121;28;20536;-59
2022/05/23 09:05:08;;;;;;;3.67;1.80;;;;;;;;;;8311064;28;20017;-59
2022/05/23 09:09:10;;;;;;;6.57;1.70;;;;;;;;;;8307967;28;20446;-59
2022/05/23 09:13:12;;;;;;;3.73;1.97;;;;;;;;;;8307508;28;20317;-59
2022/05/23 09:17:20;;;;;;;4.13;1.55;;;;;;;;;;8318057;28;20044;-59
2022/05/23 09:21:20;;;;;;;3.22;1.40;;;;;;;;;;8307757;28;20401;-59
2022/05/23 09:25:22;;;;;;;2.55;1.60;;;;;;;;;;8305035;28;20084;-59
2022/05/23 09:29:22;;;;;;;2.70;1.70;;;;;;;;;;8309403;28;20143;-59
2022/05/23 09:33:22;;;;;;;4.13;1.80;;;;;;;;;;8310228;28;20049;-59
2022/05/23 09:37:28;;;;;;;1.75;1.65;;;;;;;;;;8305053;28;20037;-59
2022/05/23 09:41:28;;;;;;;3.50;1.80;;;;;;;;;;8307635;28;20031;-59
2022/05/23 09:49:51;;;;;;;4.15;2.20;;;;;;;;;;8310124;28;20898;-59
2022/05/23 09:53:55;;;;;;;4.93;2.10;;;;;;;;;;8308302;28;20085;-61
2022/05/23 09:57:57;;;;;;;2.63;1.98;;;;;;;;;;8308119;28;20029;-59
2022/05/23 10:02:01;;;;;;;4.87;2.60;;;;;;;;;;8307149;28;20037;-60
2022/05/23 10:06:24;;;;;;;4.63;2.60;;;;;;;;;;8308468;28;21244;-59
2022/05/23 10:10:26;;;;;;;4.65;2.50;;;;;;;;;;8304490;28;20031;-59
2022/05/23 10:14:38;;;;;;;4.57;2.25;;;;;;;;;;8306729;28;20104;-59
2022/05/23 10:19:02;;;;;;;3.92;2.20;;;;;;;;;;8305210;28;20124;-59
2022/05/23 10:23:03;;;;;;;3.88;2.58;;;;;;;;;;8308858;28;20025;-59
2022/05/23 10:27:07;;;;;;;6.10;2.40;;;;;;;;;;8307362;28;20418;-59
2022/05/23 10:31:15;;;;;;;3.22;2.13;;;;;;;;;;8307764;28;20033;-59
2022/05/23 10:35:16;;;;;;;8.88;3.20;;;;;;;;;;8303849;28;20067;-59
2022/05/23 10:43:44;;;;;;;9.07;3.25;;;;;;;;;;8303221;28;20102;-59
2022/05/23 10:47:53;;;;;;;4.75;2.80;;;;;;;;;;8307671;28;20532;-60
2022/05/23 10:52:02;;;;;;;4.47;3.10;;;;;;;;;;8304076;28;20033;-59
2022/05/23 10:56:08;;;;;;;5.70;2.63;;;;;;;;;;8306315;28;20021;-59
2022/05/23 11:00:17;;;;;;;4.75;2.90;;;;;;;;;;8302795;28;20075;-61
2022/05/23 11:04:27;;;;;;;3.75;2.95;;;;;;;;;;8304141;28;20136;-60
2022/05/23 11:08:47;;;;;;;4.75;3.08;;;;;;;;;;8305861;28;20035;-59
2022/05/23 11:12:53;;;;;;;6.25;3.20;;;;;;;;;;8303280;28;20033;-59
2022/05/23 11:16:54;;;;;;;5.43;3.10;;;;;;;;;;8306398;28;20489;-59
2022/05/23 11:20:56;;;;;;;12.38;2.72;;;;;;;;;;8306066;28;20029;-59
2022/05/23 11:25:04;;;;;;;5.20;3.22;;;;;;;;;;8300411;28;20029;-59
2022/05/23 11:33:41;;;;;;;4.97;2.80;;;;;;;;;;8304435;28;20072;-59
2022/05/23 11:37:42;;;;;;;4.63;2.80;;;;;;;;;;8306588;28;20056;-59
2022/05/23 11:41:43;;;;;;;4.65;2.63;;;;;;;;;;8302274;28;20083;-60
2022/05/23 11:45:57;;;;;;;4.78;3.22;;;;;;;;;;8303178;28;20102;-59
2022/05/23 11:50:04;;;;;;;6.50;3.15;;;;;;;;;;8310305;28;20087;-59
2022/05/23 11:54:12;;;;;;;2.60;2.40;;;;;;;;;;8311545;28;20028;-59
2022/05/23 11:58:36;;;;;;;3.35;2.88;;;;;;;;;;8311736;28;20021;-59
2022/05/23 12:02:38;;;;;;;6.53;3.28;;;;;;;;;;8302203;28;20051;-59
2022/05/23 12:06:39;;;;;;;4.75;2.60;;;;;;;;;;8312392;28;20021;-60
2022/05/23 12:10:40;;;;;;;4.72;2.40;;;;;;;;;;8311467;28;20025;-59
2022/05/23 12:14:40;;;;;;;5.07;2.47;;;;;;;;;;8310015;28;20813;-59
2022/05/23 12:18:40;;;;;;;5.32;2.95;;;;;;;;;;8309974;28;20033;-59
2022/05/23 12:23:06;;;;;;;6.32;3.47;;;;;;;;;;8307646;28;20053;-59
2022/05/23 12:27:22;;;;;;;6.97;2.83;;;;;;;;;;8305314;28;20051;-59
2022/05/23 12:31:25;;;;;;;5.40;3.00;;;;;;;;;;8311564;28;20045;-59
2022/05/23 12:35:34;;;;;;;5.93;2.90;;;;;;;;;;8306293;28;20661;-59
2022/05/23 12:39:35;;;;;;;6.82;2.45;;;;;;;;;;8309254;28;20040;-60
2022/05/23 12:43:41;;;;;;;5.72;2.90;;;;;;;;;;8312073;28;20031;-59
2022/05/23 12:47:54;;;;;;;6.72;3.40;;;;;;;;;;8304783;28;20040;-59
2022/05/23 12:52:20;;;;;;;6.07;3.03;;;;;;;;;;8307648;28;20033;-59
2022/05/23 12:56:36;;;;;;;4.43;2.50;;;;;;;;;;8302649;28;20501;-59
2022/05/23 13:00:44;;;;;;;5.10;2.97;;;;;;;;;;8308965;28;20029;-59
2022/05/23 13:04:48;;;;;;;5.55;2.40;;;;;;;;;;8309660;28;20040;-59
2022/05/23 13:08:56;;;;;;;7.97;2.97;;;;;;;;;;8307305;28;20028;-59
2022/05/23 13:13:05;;;;;;;6.60;3.05;;;;;;;;;;8308532;28;20025;-59
2022/05/23 13:17:06;;;;;;;8.43;2.95;;;;;;;;;;8309550;28;20144;-59
2022/05/23 13:25:29;;;;;;;5.10;2.78;;;;;;;;;;8309670;28;20580;-59
2022/05/23 13:29:29;;;;;;;7.03;2.90;;;;;;;;;;8308147;28;20032;-59
2022/05/23 13:33:31;;;;;;;5.30;2.63;;;;;;;;;;8308216;28;20034;-59
2022/05/23 13:37:34;;;;;;;5.35;2.92;;;;;;;;;;8309910;28;20017;-59
2022/05/23 13:41:34;;;;;;;4.85;2.65;;;;;;;;;;8304172;28;20029;-59
2022/05/23 13:45:35;;;;;;;5.88;2.53;;;;;;;;;;8304693;28;20044;-59
2022/05/23 13:49:41;;;;;;;5.88;2.65;;;;;;;;;;8307929;28;20071;-59
2022/05/23 13:53:47;;;;;;;5.45;2.60;;;;;;;;;;8309001;28;20528;-60
2022/05/23 13:57:51;;;;;;;8.00;2.88;;;;;;;;;;8311107;28;20034;-59
2022/05/23 14:01:57;;;;;;;7.35;2.80;;;;;;;;;;8307422;28;20532;-59
2022/05/23 14:05:59;;;;;;;6.55;2.60;;;;;;;;;;8303623;28;20459;-59
2022/05/23 14:10:02;;;;;;;9.85;2.40;;;;;;;;;;8305076;28;20025;-59
2022/05/23 14:14:17;;;;;;;6.88;2.60;;;;;;;;;;8302996;28;20025;-59
2022/05/23 14:18:18;;;;;;;7.35;2.33;;;;;;;;;;8306513;28;20091;-59
2022/05/23 14:22:23;;;;;;;4.65;2.25;;;;;;;;;;8305961;28;20033;-59
2022/05/23 14:26:23;;;;;;;5.38;2.50;;;;;;;;;;8307255;28;20026;-59
2022/05/23 14:30:23;;;;;;;6.72;2.30;;;;;;;;;;8305658;28;20052;-59
2022/05/23 14:34:27;;;;;;;4.90;2.08;;;;;;;;;;8308767;28;20032;-60
2022/05/23 14:38:48;;;;;;;9.13;2.53;;;;;;;;;;8305242;28;20123;-59
2022/05/23 14:42:49;;;;;;;8.88;2.30;;;;;;;;;;8297963;28;20102;-60
2022/05/23 14:46:59;;;;;;;8.17;2.10;;;;;;;;;;8303145;28;20103;-60
2022/05/23 14:51:09;;;;;;;6.65;2.65;;;;;;;;;;8305109;28;20386;-59
2022/05/23 14:55:20;;;;;;;4.68;2.00;;;;;;;;;;8305857;28;20028;-59
2022/05/23 15:03:44;;;;;;;8.25;2.40;;;;;;;;;;8306984;28;20983;-60
2022/05/23 15:07:45;;;;;;;6.65;2.40;;;;;;;;;;8302306;28;20108;-59
2022/05/23 15:11:45;;;;;;;6.25;2.28;;;;;;;;;;8305058;28;20036;-60
2022/05/23 15:15:46;;;;;;;6.73;2.60;;;;;;;;;;8306118;28;20037;-60
2022/05/23 15:19:47;;;;;;;7.03;2.45;;;;;;;;;;8302041;28;20807;-59
2022/05/23 15:23:47;;;;;;;6.67;2.30;;;;;;;;;;8309448;28;20183;-59
2022/05/23 15:27:48;;;;;;;7.47;2.30;;;;;;;;;;8311918;28;20270;-59
2022/05/23 15:31:50;;;;;;;7.50;2.65;;;;;;;;;;8309963;28;21540;-61
2022/05/23 15:35:50;;;;;;;15.90;2.50;;;;;;;;;;8314150;28;20553;-59
2022/05/23 15:39:50;;;;;;;6.40;2.47;;;;;;;;;;8312493;28;20400;-60
2022/05/23 15:43:51;;;;;;;7.78;2.53;;;;;;;;;;8312036;28;20124;-60
2022/05/23 15:47:51;;;;;;;5.23;2.40;;;;;;;;;;8312062;28;20710;-59
2022/05/23 15:51:51;;;;;;;13.02;2.30;;;;;;;;;;8310990;28;20029;-60
2022/05/23 15:55:53;;;;;;;6.73;2.13;;;;;;;;;;8311137;28;20167;-59
2022/05/23 15:59:54;;;;;;;8.43;2.45;;;;;;;;;;8312135;28;20093;-61
2022/05/23 16:03:54;;;;;;;6.05;2.25;;;;;;;;;;8310602;28;20095;-60
2022/05/23 16:07:54;;;;;;;8.25;2.63;;;;;;;;;;8311172;28;20460;-59
2022/05/23 16:11:55;;;;;;;6.68;2.20;;;;;;;;;;8311575;28;20075;-59
2022/05/23 16:15:55;;;;;;;5.18;2.38;;;;;;;;;;8311336;28;20095;-59
2022/05/23 16:19:56;;;;;;;8.98;2.45;;;;;;;;;;8311288;28;20104;-59
2022/05/23 16:23:59;;;;;;;8.15;2.10;;;;;;;;;;8312294;28;20052;-59
2022/05/23 16:27:59;;;;;;;;;;;;;;;;;;8313380;28;20013;-59
2022/05/23 16:31:59;;;;;;;5.45;2.00;;;;;;;;;;8312071;28;19921;-59
2022/05/23 16:40:18;;;;;;;3.50;1.60;;;;;;;;;;8309313;28;20072;-59
2022/05/23 16:44:19;;;;;;;5.45;1.67;;;;;;;;;;8311511;28;20100;-59
2022/05/23 16:48:19;;;;;;;5.00;1.83;;;;;;;;;;8308884;28;20516;-59
2022/05/23 16:52:19;;;;;;;5.00;1.98;;;;;;;;;;8308755;28;20025;-59
2022/05/23 16:56:21;;;;;;;4.10;1.73;;;;;;;;;;8313014;28;20480;-59
2022/05/23 17:00:21;;;;;;;5.00;1.80;;;;;;;;;;8308905;28;20326;-59
2022/05/23 17:04:21;;;;;;;4.03;1.93;;;;;;;;;;8307901;28;20104;-59
2022/05/23 17:08:21;;;;;;;3.95;1.73;;;;;;;;;;8312781;28;20033;-59
2022/05/23 17:12:21;;;;;;;4.60;1.92;;;;;;;;;;8309554;28;20033;-59
2022/05/23 17:16:22;;;;;;;5.15;1.70;;;;;;;;;;8311436;28;20029;-59
2022/05/23 17:20:22;;;;;;;5.28;1.90;;;;;;;;;;8307133;28;20029;-58
2022/05/23 17:24:23;;;;;;;3.88;1.70;;;;;;;;;;8306434;28;20103;-59
2022/05/23 17:28:24;;;;;;;8.15;2.13;;;;;;;;;;8306435;28;20528;-59
2022/05/23 17:32:24;;;;;;;5.13;2.20;;;;;;;;;;8310803;28;20164;-59
2022/05/23 17:36:24;;;;;;;4.37;1.70;;;;;;;;;;8309249;28;20082;-59
2022/05/23 17:40:27;;;;;;;7.07;1.67;;;;;;;;;;8312102;28;20033;-60
2022/05/23 17:44:27;;;;;;;4.32;1.75;;;;;;;;;;8306119;28;20948;-60
2022/05/23 17:48:27;;;;;;;5.35;1.85;;;;;;;;;;8311172;28;20096;-60
2022/05/23 17:52:28;;;;;;;10.20;2.10;;;;;;;;;;8309570;28;20044;-59
2022/05/23 17:56:28;;;;;;;7.43;2.33;;;;;;;;;;8309136;28;20024;-60
2022/05/23 18:00:29;;;;;;;6.78;1.92;;;;;;;;;;8307807;28;20037;-60
2022/05/23 18:04:30;;;;;;;6.25;2.13;;;;;;;;;;8308532;28;20036;-59
2022/05/23 18:08:31;;;;;;;5.95;1.77;;;;;;;;;;8308300;28;20071;-59
2022/05/23 18:12:31;;;;;;;5.68;1.70;;;;;;;;;;8308229;28;20477;-59
2022/05/23 18:20:51;;;;;;;5.47;1.75;;;;;;;;;;8305429;28;20075;-59
2022/05/23 18:24:51;;;;;;;7.60;1.40;;;;;;;;;;8308113;28;20728;-59
2022/05/23 18:28:52;;;;;;;3.70;1.33;;;;;;;;;;8306871;28;20078;-59
2022/05/23 18:32:52;;;;;;;5.03;1.25;;;;;;;;;;8304647;28;20075;-59
2022/05/23 18:36:52;;;;;;;3.47;1.40;;;;;;;;;;8305216;28;20018;-66
2022/05/23 18:40:53;;;;;;;2.50;1.27;;;;;;;;;;8301777;28;20021;-59
2022/05/23 18:44:54;;;;;;;2.25;1.38;;;;;;;;;;8305970;28;20029;-60
2022/05/23 18:49:41;;;;;;;2.08;1.30;;;;;;;;;;8299840;28;21020;-59
2022/05/23 18:53:29;;;;;;;1.75;1.27;;;;;;;;;;8304614;28;20784;-59
2022/05/23 18:57:29;;;;;;;2.45;1.70;;;;;;;;;;8305000;28;20047;-59
2022/05/23 19:01:30;;;;;;;4.10;1.60;;;;;;;;;;8301324;28;20034;-59
2022/05/23 19:05:30;;;;;;;3.95;1.48;;;;;;;;;;8303470;28;20024;-60
2022/05/23 19:09:30;;;;;;;7.30;1.70;;;;;;;;;;8302257;28;20156;-59
2022/05/23 19:13:30;;;;;;;2.88;1.40;;;;;;;;;;8299418;28;20959;-59
2022/05/23 19:17:31;;;;;;;5.28;1.20;;;;;;;;;;8302616;28;20048;-60
2022/05/23 19:21:32;;;;;;;3.33;1.20;;;;;;;;;;8302518;28;20033;-59
2022/05/23 19:25:32;;;;;;;2.42;1.20;;;;;;;;;;8303070;28;20032;-59
2022/05/23 19:29:32;;;;;;;2.75;1.30;;;;;;;;;;8301358;28;20537;-59
2022/05/23 19:33:33;;;;;;;2.28;1.23;;;;;;;;;;8298605;28;20037;-58
2022/05/23 19:37:33;;;;;;;3.90;1.20;;;;;;;;;;8302981;28;20083;-59
2022/05/23 19:41:33;;;;;;;2.15;1.10;;;;;;;;;;8304013;28;20060;-59
2022/05/23 19:45:33;;;;;;;2.58;1.20;;;;;;;;;;8302585;28;20088;-60
2022/05/23 19:49:34;;;;;;;1.63;1.40;;;;;;;;;;8301478;28;20029;-60
2022/05/23 19:53:37;;;;;;;1.30;1.20;;;;;;;;;;8300582;28;20799;-59
2022/05/23 19:57:38;;;;;;;1.77;1.42;;;;;;;;;;8302576;28;20025;-58
2022/05/23 20:10:56;;;;;;;2.42;1.77;;;;;;;;;;8258386;28;20497;-59
2022/05/23 20:19:15;;;;;;;3.50;1.90;;;;;;;;;;8307131;28;20095;-60
2022/05/23 20:23:16;;;;;;;3.25;2.28;;;;;;;;;;8311058;28;20029;-57
2022/05/23 20:27:16;;;;;;;4.25;2.10;;;;;;;;;;8309526;28;20036;-57
2022/05/23 20:31:17;;;;;;;3.40;2.10;;;;;;;;;;8309048;28;20879;-57
2022/05/23 20:35:17;;;;;;;4.80;2.40;;;;;;;;;;8310877;28;20025;-59
2022/05/23 20:39:18;;;;;;;4.75;2.50;;;;;;;;;;8312525;28;20481;-60
2022/05/23 20:43:19;;;;;;;3.17;2.70;;;;;;;;;;8311451;28;20122;-58
2022/05/23 20:47:19;;;;;;;3.30;3.00;;;;;;;;;;8311358;28;20274;-59
2022/05/23 20:51:19;;;;;;;4.43;2.95;;;;;;;;;;8311138;28;20033;-58
2022/05/23 20:55:19;;;;;;;4.43;2.97;;;;;;;;;;8311051;28;20019;-59
2022/05/23 20:59:20;;;;;;;3.30;2.50;;;;;;;;;;8311754;28;20731;-59
2022/05/23 21:03:20;;;;;;;4.55;2.70;;;;;;;;;;8309279;28;20044;-59
2022/05/23 21:07:21;;;;;;;4.60;2.60;;;;;;;;;;8310852;28;20103;-58
2022/05/23 21:11:22;;;;;;;2.88;2.40;;;;;;;;;;8309246;28;20064;-58
2022/05/23 21:15:23;;;;;;;3.03;2.63;;;;;;;;;;8310762;28;20107;-59
2022/05/23 21:19:23;;;;;;;2.83;2.50;;;;;;;;;;8307069;28;20036;-58
2022/05/23 21:23:24;;;;;;;2.90;2.40;;;;;;;;;;8311547;28;20479;-59
2022/05/23 21:27:24;;;;;;;4.35;2.72;;;;;;;;;;8310442;28;20093;-58
2022/05/23 21:31:26;;;;;;;3.13;2.72;;;;;;;;;;8312304;28;20048;-58
2022/05/23 21:35:27;;;;;;;3.17;2.85;;;;;;;;;;8309003;28;20591;-59
2022/05/23 21:39:28;;;;;;;3.22;2.90;;;;;;;;;;8307950;28;20488;-58
2022/05/23 21:47:47;;;;;;;3.10;2.90;;;;;;;;;;8308774;28;20067;-59
2022/05/23 21:51:47;;;;;;;3.08;2.88;;;;;;;;;;8309013;28;20144;-58
2022/05/23 21:55:50;;;;;;;3.55;2.80;;;;;;;;;;8308675;28;20054;-59
2022/05/23 21:59:50;;;;;;;2.70;2.50;;;;;;;;;;8307039;28;20195;-59
2022/05/23 22:03:51;;;;;;;3.05;2.72;;;;;;;;;;8307485;28;20044;-58
2022/05/23 22:07:51;;;;;;;4.40;2.95;;;;;;;;;;8308449;28;20163;-59
2022/05/23 22:11:51;;;;;;;3.47;2.65;;;;;;;;;;8306885;28;20028;-59
2022/05/23 22:15:52;;;;;;;2.70;2.50;;;;;;;;;;8307294;28;20482;-59
2022/05/23 22:19:52;;;;;;;2.63;2.42;;;;;;;;;;8306153;28;21274;-58
2022/05/23 22:23:52;;;;;;;2.70;2.40;;;;;;;;;;8310039;28;20441;-58
2022/05/23 22:27:52;;;;;;;2.70;2.50;;;;;;;;;;8308808;28;20139;-59
2022/05/23 22:31:53;;;;;;;2.80;2.40;;;;;;;;;;8306432;28;20049;-58
2022/05/23 22:35:53;;;;;;;3.67;2.37;;;;;;;;;;8304108;28;20029;-57
2022/05/23 22:39:53;;;;;;;4.40;2.50;;;;;;;;;;8307414;28;20099;-59
2022/05/23 22:43:53;;;;;;;6.55;2.65;;;;;;;;;;8305185;28;20025;-58
2022/05/23 22:47:54;;;;;;;2.40;2.30;;;;;;;;;;8309200;28;20172;-58
2022/05/23 22:51:54;;;;;;;2.20;2.00;;;;;;;;;;8306990;28;20554;-58
2022/05/23 22:55:58;;;;;;;2.40;2.15;;;;;;;;;;8308877;28;20790;-57
2022/05/23 22:59:59;;;;;;;2.67;2.40;;;;;;;;;;8305730;28;20136;-59
2022/05/23 23:08:18;;;;;;;2.97;2.60;;;;;;;;;;8306814;28;20032;-58
2022/05/23 23:12:18;;;;;;;6.20;2.78;;;;;;;;;;8303960;28;20029;-58
2022/05/23 23:16:19;;;;;;;2.80;2.60;;;;;;;;;;8306997;28;20033;-59
2022/05/23 23:20:19;;;;;;;3.88;2.78;;;;;;;;;;8307644;28;20029;-59
2022/05/23 23:24:20;;;;;;;3.60;3.30;;;;;;;;;;8308110;28;20406;-57
2022/05/23 23:28:20;;;;;;;5.60;3.50;;;;;;;;;;8305065;28;20878;-58
2022/05/23 23:32:20;;;;;;;4.75;3.83;;;;;;;;;;8305529;28;20379;-59
2022/05/23 23:40:39;;;;;;;4.53;3.88;;;;;;;;;;8305118;28;20075;-58
2022/05/23 23:44:39;;;;;;;4.97;3.72;;;;;;;;;;8308323;28;20021;-59
2022/05/23 23:48:40;;;;;;;4.15;3.60;;;;;;;;;;8313597;28;20073;-58
2022/05/23 23:52:40;;;;;;;5.35;3.40;;;;;;;;;;8314513;28;20025;-59
2022/05/23 23:56:40;;;;;;;6.05;3.53;;;;;;;;;;8314760;28;20029;-59
